• Join FlightAware (Why Join?)
  • Login
  • US Flag 
11:48PM EDT


 

Airport Tracker/Info


-or-


 

Live Flight TrackerFlight Track Log ✈ CMP204 ✈ 03-May-2013 ✈ SBBR / BSB - MPTO / PTY

Flight Track Log - Related Links

Times and Time Zones

All times are in EDT time to prevent confusion due to time zone crossing. See the CMP204 flight status page for this flight to view local times or setup timezone preferences in your user account.

Time Position Orientation Groundspeed Altitude Reporting Facility
EDT Latitude Longitude Course Direction KTS MPH feet Rate Location/Type
01:38AM -15.8610 -47.8740 87° East 145 167 5,000  Level FlightAware
01:39AM -15.8600 -47.8550 87° East 187 215 5,800 1,620 Climbing FlightAware
01:40AM -15.8350 -47.8130 58° Northeast 195 224 7,200 1,440 Climbing FlightAware
01:40AM -15.8120 -47.8210 341° North 256 295 7,600 480 Climbing FlightAware
01:40AM -15.7860 -47.8300 342° North 256 295 7,600 1,260 Level FlightAware
01:41AM -15.7740 -47.9100 279° West 293 337 9,100 1,380 Climbing FlightAware
01:42AM -15.7670 -47.9320 288° West 293 337 9,100 2,700 Level FlightAware
01:42AM -15.7030 -48.0000 314° West 361 415 12,300 2,940 Climbing FlightAware
01:43AM -15.6750 -48.0460 302° West 375 432 13,300 1,980 Climbing FlightAware
01:44AM -15.6370 -48.1090 302° West 382 440 14,800 2,160 Climbing FlightAware
01:44AM -15.5820 -48.1930 304° West 395 455 16,600 2,040 Climbing FlightAware
01:45AM -15.5450 -48.2460 306° West 401 461 17,700 1,860 Climbing FlightAware
01:46AM -15.4880 -48.3280 306° West 411 473 19,300 1,680 Climbing FlightAware
01:47AM -15.4480 -48.3880 305° West 417 480 20,300 1,680 Climbing FlightAware
01:47AM -15.3940 -48.4670 305° West 426 490 21,700 1,680 Climbing FlightAware
01:48AM -15.3340 -48.5540 306° West 431 496 23,100 1,440 Climbing FlightAware
01:49AM -15.2540 -48.6720 305° West 443 510 24,800 1,440 Climbing FlightAware
01:50AM -15.2030 -48.7460 306° West 449 517 25,800 1,380 Climbing FlightAware
01:51AM -15.1520 -48.8200 306° West 451 519 26,700 1,200 Climbing FlightAware
01:52AM -15.0580 -48.9580 305° West 468 539 28,200 780 Climbing FlightAware
01:53AM -15.0210 -49.0140 304° West 468 539 28,200  Level FlightAware
01:53AM -14.9790 -49.0780 304° West 468 539 28,200  Level FlightAware
01:54AM -14.9280 -49.1570 304° West 468 539 28,200  Level FlightAware
01:55AM -14.8870 -49.2200 304° West 468 539 28,200  Level FlightAware
01:55AM -14.8460 -49.2830 304° West 468 539 28,200 -120 Level FlightAware
01:58AM -14.6987 -49.4859 307° West  Level Estimated
01:59AM -14.6297 -49.5810 307° West  Level Estimated
02:00AM -14.5605 -49.6759 307° West  Level Estimated
02:01AM -14.4914 -49.7708 307° West  Level Estimated
02:02AM -14.4222 -49.8657 307° West  Level Estimated
02:03AM -14.3530 -49.9605 307° West  Level Estimated
02:04AM -14.2837 -50.0552 307° West  Level Estimated
02:05AM -14.2144 -50.1499 307° West  Level Estimated
02:06AM -14.1450 -50.2445 307° West  Level Estimated
02:07AM -14.0756 -50.3390 307° West  Level Estimated
02:08AM -14.0062 -50.4335 307° West  Level Estimated
02:09AM -13.9368 -50.5280 307° West  Level Estimated
02:10AM -13.8673 -50.6224 307° West  Level Estimated
02:11AM -13.7977 -50.7167 307° West  Level Estimated
02:12AM -13.7282 -50.8110 307° West  Level Estimated
02:13AM -13.6586 -50.9052 307° West  Level Estimated
02:14AM -13.5889 -50.9993 307° West  Level Estimated
02:15AM -13.5192 -51.0934 307° West  Level Estimated
02:16AM -13.4495 -51.1875 307° West  Level Estimated
02:17AM -13.3798 -51.2815 307° West  Level Estimated
02:18AM -13.3100 -51.3754 307° West  Level Estimated
02:19AM -13.2402 -51.4693 307° West  Level Estimated
02:20AM -13.1704 -51.5632 307° West  Level Estimated
02:21AM -13.1005 -51.6569 307° West  Level Estimated
02:22AM -13.0306 -51.7507 307° West  Level Estimated
02:23AM -12.9606 -51.8443 307° West  Level Estimated
02:24AM -12.8906 -51.9380 307° West  Level Estimated
02:25AM -12.8206 -52.0315 307° West  Level Estimated
02:26AM -12.7506 -52.1250 308° West  Level Estimated
02:27AM -12.6805 -52.2185 308° West  Level Estimated
02:28AM -12.6104 -52.3119 308° West  Level Estimated
02:29AM -12.5402 -52.4053 308° West  Level Estimated
02:30AM -12.4700 -52.4986 308° West  Level Estimated
02:31AM -12.3998 -52.5919 308° West  Level Estimated
02:32AM -12.3296 -52.6851 308° West  Level Estimated
02:33AM -12.2593 -52.7782 308° West  Level Estimated
02:34AM -12.1890 -52.8713 308° West  Level Estimated
02:35AM -12.1187 -52.9644 308° West  Level Estimated
02:36AM -12.0483 -53.0574 308° West  Level Estimated
02:37AM -11.9779 -53.1504 308° West  Level Estimated
02:38AM -11.9075 -53.2433 308° West  Level Estimated
02:39AM -11.8370 -53.3362 308° West  Level Estimated
02:40AM -11.7665 -53.4290 308° West  Level Estimated
02:41AM -11.6960 -53.5217 308° West  Level Estimated
02:42AM -11.6255 -53.6145 308° West  Level Estimated
02:43AM -11.5549 -53.7071 308° West  Level Estimated
02:44AM -11.4843 -53.7998 308° West  Level Estimated
02:45AM -11.4136 -53.8923 308° West  Level Estimated
02:46AM -11.3429 -53.9849 308° West  Level Estimated
02:47AM -11.2723 -54.0774 308° West  Level Estimated
02:48AM -11.2015 -54.1698 308° West  Level Estimated
02:49AM -11.1308 -54.2622 308° West  Level Estimated
02:50AM -11.0600 -54.3546 308° West  Level Estimated
02:51AM -10.9892 -54.4469 308° West  Level Estimated
02:52AM -10.9184 -54.5392 308° West  Level Estimated
02:53AM -10.8475 -54.6314 308° West  Level Estimated
02:54AM -10.7766 -54.7236 308° West  Level Estimated
02:55AM -10.7057 -54.8157 308° West  Level Estimated
02:56AM -10.6347 -54.9078 308° West  Level Estimated
02:57AM -10.5638 -54.9999 308° West  Level Estimated
02:58AM -10.4928 -55.0919 308° West  Level Estimated
02:59AM -10.4217 -55.1838 308° West  Level Estimated
03:00AM -10.3507 -55.2757 308° West  Level Estimated
03:01AM -10.2796 -55.3676 308° West  Level Estimated
03:02AM -10.2085 -55.4595 308° West  Level Estimated
03:03AM -10.1374 -55.5513 308° West  Level Estimated
03:04AM -10.0662 -55.6430 308° West  Level Estimated
03:05AM -9.9950 -55.7347 308° West  Level Estimated
03:06AM -9.9238 -55.8264 308° West  Level Estimated
03:07AM -9.8526 -55.9181 308° West  Level Estimated
03:08AM -9.7814 -56.0097 308° West  Level Estimated
03:09AM -9.7101 -56.1012 308° West  Level Estimated
03:10AM -9.6388 -56.1927 308° West  Level Estimated
03:11AM -9.5674 -56.2842 308° West  Level Estimated
03:12AM -9.4961 -56.3757 308° West  Level Estimated
03:13AM -9.4247 -56.4671 308° West  Level Estimated
03:14AM -9.3533 -56.5584 308° West  Level Estimated
03:15AM -9.2819 -56.6498 308° West  Level Estimated
03:16AM -9.2104 -56.7411 308° West  Level Estimated
03:17AM -9.1390 -56.8323 308° West  Level Estimated
03:18AM -9.0706 -56.9195 308° West  Level Estimated
03:19AM -9.0023 -57.0067 308° West  Level Estimated
03:20AM -8.9339 -57.0938 308° West  Level Estimated
03:21AM -8.8655 -57.1809 308° West  Level Estimated
03:22AM -8.7971 -57.2680 308° West  Level Estimated
03:23AM -8.7286 -57.3550 309° West  Level Estimated
03:24AM -8.6602 -57.4420 309° West  Level Estimated
03:25AM -8.5917 -57.5290 309° West  Level Estimated
03:26AM -8.5232 -57.6160 309° West  Level Estimated
03:27AM -8.4547 -57.7029 309° West  Level Estimated
03:28AM -8.3861 -57.7897 309° West  Level Estimated
03:29AM -8.3176 -57.8766 309° West  Level Estimated
03:30AM -8.2490 -57.9634 309° West  Level Estimated
03:31AM -8.1804 -58.0502 309° West  Level Estimated
03:32AM -8.1118 -58.1370 309° West  Level Estimated
03:33AM -8.0431 -58.2237 309° West  Level Estimated
03:34AM -7.9745 -58.3104 309° West  Level Estimated
03:35AM -7.9058 -58.3971 309° West  Level Estimated
03:36AM -7.8371 -58.4837 309° West  Level Estimated
03:37AM -7.7684 -58.5703 309° West  Level Estimated
03:38AM -7.6997 -58.6569 309° West  Level Estimated
03:39AM -7.6310 -58.7435 309° West  Level Estimated
03:40AM -7.5622 -58.8300 309° West  Level Estimated
03:41AM -7.4935 -58.9165 309° West  Level Estimated
03:42AM -7.4247 -59.0029 309° West  Level Estimated
03:43AM -7.3559 -59.0894 309° West  Level Estimated
03:44AM -7.2870 -59.1758 309° West  Level Estimated
03:45AM -7.2182 -59.2622 309° West  Level Estimated
03:46AM -7.1493 -59.3486 309° West  Level Estimated
03:47AM -7.0805 -59.4349 309° West  Level Estimated
03:48AM -7.0116 -59.5212 309° West  Level Estimated
03:49AM -6.9427 -59.6075 309° West  Level Estimated
03:50AM -6.8738 -59.6938 309° West  Level Estimated
03:51AM -6.8048 -59.7800 309° West  Level Estimated
03:52AM -6.7359 -59.8662 309° West  Level Estimated
03:53AM -6.6669 -59.9524 309° West  Level Estimated
03:54AM -6.5979 -60.0386 309° West  Level Estimated
03:55AM -6.5289 -60.1247 309° West  Level Estimated
03:56AM -6.4599 -60.2109 309° West  Level Estimated
03:57AM -6.3909 -60.2970 309° West  Level Estimated
03:58AM -6.3219 -60.3830 309° West  Level Estimated
03:59AM -6.2528 -60.4691 309° West  Level Estimated
04:00AM -6.1837 -60.5551 309° West  Level Estimated
04:01AM -6.1147 -60.6411 309° West  Level Estimated
04:02AM -6.0456 -60.7271 309° West  Level Estimated
04:03AM -5.9765 -60.8130 309° West  Level Estimated
04:04AM -5.9073 -60.8990 309° West  Level Estimated
04:05AM -5.8382 -60.9849 309° West  Level Estimated
04:06AM -5.7691 -61.0708 309° West  Level Estimated
04:07AM -5.6999 -61.1567 309° West  Level Estimated
04:08AM -5.6307 -61.2425 309° West  Level Estimated
04:09AM -5.5615 -61.3283 309° West  Level Estimated
04:10AM -5.4923 -61.4142 309° West  Level Estimated
04:11AM -5.4231 -61.4999 309° West  Level Estimated
04:12AM -5.3539 -61.5857 309° West  Level Estimated
04:13AM -5.2847 -61.6715 309° West  Level Estimated
04:14AM -5.2154 -61.7572 309° West  Level Estimated
04:15AM -5.1462 -61.8429 309° West  Level Estimated
04:16AM -5.0769 -61.9286 309° West  Level Estimated
04:17AM -5.0076 -62.0143 309° West  Level Estimated
04:18AM -4.9383 -62.0999 309° West  Level Estimated
04:19AM -4.8690 -62.1856 309° West  Level Estimated
04:20AM -4.7997 -62.2712 309° West  Level Estimated
04:21AM -4.7304 -62.3568 309° West  Level Estimated
04:22AM -4.6611 -62.4424 309° West  Level Estimated
04:23AM -4.5917 -62.5280 309° West  Level Estimated
04:24AM -4.5224 -62.6135 309° West  Level Estimated
04:25AM -4.4530 -62.6991 309° West  Level Estimated
04:26AM -4.3836 -62.7846 309° West  Level Estimated
04:27AM -4.3143 -62.8701 309° West  Level Estimated
04:28AM -4.2449 -62.9556 309° West  Level Estimated
04:29AM -4.1755 -63.0411 309° West  Level Estimated
04:30AM -4.1061 -63.1265 309° West  Level Estimated
04:31AM -4.0367 -63.2120 309° West  Level Estimated
04:32AM -3.9672 -63.2974 309° West  Level Estimated
04:33AM -3.8978 -63.3828 309° West  Level Estimated
04:34AM -3.8283 -63.4682 309° West  Level Estimated
04:35AM -3.7589 -63.5536 309° West  Level Estimated
04:36AM -3.6894 -63.6390 309° West  Level Estimated
04:37AM -3.6199 -63.7244 309° West  Level Estimated
04:38AM -3.5505 -63.8097 309° West  Level Estimated
04:39AM -3.4810 -63.8951 309° West  Level Estimated
04:40AM -3.4115 -63.9804 309° West  Level Estimated
04:41AM -3.3420 -64.0657 309° West  Level Estimated
04:42AM -3.2725 -64.1510 309° West  Level Estimated
04:43AM -3.2029 -64.2363 309° West  Level Estimated
04:44AM -3.1334 -64.3216 309° West  Level Estimated
04:45AM -3.0639 -64.4068 309° West  Level Estimated
04:46AM -2.9943 -64.4921 309° West  Level Estimated
04:47AM -2.9248 -64.5773 309° West  Level Estimated
04:48AM -2.8552 -64.6626 309° West  Level Estimated
04:49AM -2.7857 -64.7478 309° West  Level Estimated
04:50AM -2.7161 -64.8330 309° West  Level Estimated
04:51AM -2.6465 -64.9182 309° West  Level Estimated
04:52AM -2.5770 -65.0034 309° West  Level Estimated
04:53AM -2.5074 -65.0885 309° West  Level Estimated
04:54AM -2.4378 -65.1737 309° West  Level Estimated
04:55AM -2.3682 -65.2589 309° West  Level Estimated
04:56AM -2.2986 -65.3441 309° West  Level Estimated
04:57AM -2.2290 -65.4292 309° West  Level Estimated
04:58AM -2.1594 -65.5144 309° West  Level Estimated
04:59AM -2.0898 -65.5995 309° West  Level Estimated
05:00AM -2.0202 -65.6846 309° West  Level Estimated
05:01AM -1.9505 -65.7697 309° West  Level Estimated
05:02AM -1.8809 -65.8548 309° West  Level Estimated
05:03AM -1.8113 -65.9399 309° West  Level Estimated
05:04AM -1.7417 -66.0250 309° West  Level Estimated
05:05AM -1.6720 -66.1101 309° West  Level Estimated
05:06AM -1.6024 -66.1952 309° West  Level Estimated
05:07AM -1.5327 -66.2803 309° West  Level Estimated
05:08AM -1.4631 -66.3654 309° West  Level Estimated
05:09AM -1.3934 -66.4504 309° West  Level Estimated
05:10AM -1.3238 -66.5355 309° West  Level Estimated
05:11AM -1.2541 -66.6206 309° West  Level Estimated
05:12AM -1.1845 -66.7056 309° West  Level Estimated
05:13AM -1.1148 -66.7907 309° West  Level Estimated
05:14AM -1.0451 -66.8757 309° West  Level Estimated
05:15AM -0.9754 -66.9607 309° West  Level Estimated
05:16AM -0.9058 -67.0458 309° West  Level Estimated
05:17AM -0.8361 -67.1308 309° West  Level Estimated
05:18AM -0.7664 -67.2159 309° West  Level Estimated
05:19AM -0.6968 -67.3009 309° West  Level Estimated
05:20AM -0.6271 -67.3859 309° West  Level Estimated
05:21AM -0.5574 -67.4709 309° West  Level Estimated
05:22AM -0.4877 -67.5560 309° West  Level Estimated
05:23AM -0.4180 -67.6410 309° West  Level Estimated
05:24AM -0.3484 -67.7260 309° West  Level Estimated
05:25AM -0.2787 -67.8110 309° West  Level Estimated
05:26AM -0.2090 -67.8960 309° West  Level Estimated
05:27AM -0.1393 -67.9811 309° West  Level Estimated
05:28AM -0.0696 -68.0661 309° West  Level Estimated
05:29AM 0.0000 -68.1511 309° West  Level Estimated
05:30AM 0.0697 -68.2361 309° West  Level Estimated
05:31AM 0.1394 -68.3212 309° West  Level Estimated
05:32AM 0.2091 -68.4062 309° West  Level Estimated
05:33AM 0.2788 -68.4912 309° West  Level Estimated
05:34AM 0.3484 -68.5762 309° West  Level Estimated
05:35AM 0.4181 -68.6612 309° West  Level Estimated
05:36AM 0.4878 -68.7462 309° West  Level Estimated
05:37AM 0.5575 -68.8313 309° West  Level Estimated
05:38AM 0.6272 -68.9163 309° West  Level Estimated
05:39AM 0.6968 -69.0013 309° West  Level Estimated
05:40AM 0.7665 -69.0864 309° West  Level Estimated
05:41AM 0.8362 -69.1714 309° West  Level Estimated
05:42AM 0.9059 -69.2564 309° West  Level Estimated
05:43AM 0.9755 -69.3415 309° West  Level Estimated
05:44AM 1.0452 -69.4265 309° West  Level Estimated
05:45AM 1.1149 -69.5116 309° West  Level Estimated
05:46AM 1.1845 -69.5966 309° West  Level Estimated
05:47AM 1.2542 -69.6817 309° West  Level Estimated
05:48AM 1.3239 -69.7667 309° West  Level Estimated
05:49AM 1.3935 -69.8518 309° West  Level Estimated
05:50AM 1.4632 -69.9369 309° West  Level Estimated
05:51AM 1.5328 -70.0219 309° West  Level Estimated
05:52AM 1.6025 -70.1070 309° West  Level Estimated
05:53AM 1.6721 -70.1921 309° West  Level Estimated
05:54AM 1.7417 -70.2772 309° West  Level Estimated
05:55AM 1.8114 -70.3623 309° West  Level Estimated
05:56AM 1.8810 -70.4474 309° West  Level Estimated
05:57AM 1.9506 -70.5325 309° West  Level Estimated
05:58AM 2.0203 -70.6176 309° West  Level Estimated
05:59AM 2.0899 -70.7027 309° West  Level Estimated
06:00AM 2.1595 -70.7879 309° West  Level Estimated
06:01AM 2.2291 -70.8730 309° West  Level Estimated
06:02AM 2.2987 -70.9582 309° West  Level Estimated
06:03AM 2.3683 -71.0433 309° West  Level Estimated
06:04AM 2.4379 -71.1285 309° West  Level Estimated
06:05AM 2.5075 -71.2137 309° West  Level Estimated
06:06AM 2.5771 -71.2988 309° West  Level Estimated
06:07AM 2.6466 -71.3840 309° West  Level Estimated
06:08AM 2.7162 -71.4692 309° West  Level Estimated
06:09AM 2.7858 -71.5544 309° West  Level Estimated
06:10AM 2.8553 -71.6397 309° West  Level Estimated
06:11AM 2.9249 -71.7249 309° West  Level Estimated
06:12AM 2.9944 -71.8101 309° West  Level Estimated
06:13AM 3.0640 -71.8954 309° West  Level Estimated
06:14AM 3.1335 -71.9807 309° West  Level Estimated
06:15AM 3.2030 -72.0659 309° West  Level Estimated
06:16AM 3.2726 -72.1512 309° West  Level Estimated
06:17AM 3.3421 -72.2365 309° West  Level Estimated
06:18AM 3.4116 -72.3218 309° West  Level Estimated
06:19AM 3.4811 -72.4072 309° West  Level Estimated
06:20AM 3.5506 -72.4925 309° West  Level Estimated
06:21AM 3.6200 -72.5778 309° West  Level Estimated
06:22AM 3.6895 -72.6632 309° West  Level Estimated
06:23AM 3.7590 -72.7486 309° West  Level Estimated
06:24AM 3.8284 -72.8340 309° West  Level Estimated
06:25AM 3.8979 -72.9194 309° West  Level Estimated
06:26AM 3.9673 -73.0048 309° West  Level Estimated
06:27AM 4.0367 -73.0902 309° West  Level Estimated
06:28AM 4.1062 -73.1757 309° West  Level Estimated
06:29AM 4.1756 -73.2611 309° West  Level Estimated
06:30AM 4.2450 -73.3466 309° West  Level Estimated
06:31AM 4.3144 -73.4321 309° West  Level Estimated
06:32AM 4.3837 -73.5176 309° West  Level Estimated
06:33AM 4.4531 -73.6031 309° West  Level Estimated
06:34AM 4.5225 -73.6887 309° West  Level Estimated
06:35AM 4.5918 -73.7742 309° West  Level Estimated
06:36AM 4.6612 -73.8598 309° West  Level Estimated
06:37AM 4.7305 -73.9454 309° West  Level Estimated
06:38AM 4.7998 -74.0310 309° West  Level Estimated
06:39AM 4.8691 -74.1166 309° West  Level Estimated
06:40AM 4.9384 -74.2023 309° West  Level Estimated
06:41AM 5.0077 -74.2879 309° West  Level Estimated
06:42AM 5.0770 -74.3736 309° West  Level Estimated
06:43AM 5.1463 -74.4593 309° West  Level Estimated
06:44AM 5.2155 -74.5450 309° West  Level Estimated
06:45AM 5.2848 -74.6307 309° West  Level Estimated
06:46AM 5.3540 -74.7165 309° West  Level Estimated
06:47AM 5.4232 -74.8023 309° West  Level Estimated
06:48AM 5.4924 -74.8880 309° West  Level Estimated
06:49AM 5.5616 -74.9739 309° West  Level Estimated
06:50AM 5.6308 -75.0597 309° West  Level Estimated
06:51AM 5.7000 -75.1455 309° West  Level Estimated
06:52AM 5.7692 -75.2314 309° West  Level Estimated
06:53AM 5.8383 -75.3173 309° West  Level Estimated
06:54AM 5.9074 -75.4032 309° West  Level Estimated
06:55AM 5.9766 -75.4892 309° West  Level Estimated
06:56AM 6.0457 -75.5751 309° West  Level Estimated
06:57AM 6.1148 -75.6611 309° West  Level Estimated
06:58AM 6.1838 -75.7471 309° West  Level Estimated
06:59AM 6.2529 -75.8331 309° West  Level Estimated
07:00AM 6.3220 -75.9192 309° West  Level Estimated
07:01AM 6.3910 -76.0052 309° West  Level Estimated
07:02AM 6.4600 -76.0913 309° West  Level Estimated
07:03AM 6.5290 -76.1775 309° West  Level Estimated
07:04AM 6.5980 -76.2636 309° West  Level Estimated
07:05AM 6.6670 -76.3498 309° West  Level Estimated
07:06AM 6.7360 -76.4360 309° West  Level Estimated
07:07AM 6.8049 -76.5222 309° West  Level Estimated
07:08AM 6.8739 -76.6084 309° West  Level Estimated
07:09AM 6.9428 -76.6947 309° West  Level Estimated
07:10AM 7.0117 -76.7810 309° West  Level Estimated
07:11AM 7.0806 -76.8673 309° West  Level Estimated
07:12AM 7.1494 -76.9536 309° West  Level Estimated
07:12AM 9.0080 -79.4150 309° West 156 180 1,100  Level FlightAware
07:13AM 7.2183 -77.0400 309° West  Level Estimated
07:13AM 9.0250 -79.4060 28° Northeast 155 178 700  Level FlightAware
07:13AM 9.0440 -79.3950 30° Northeast 154 177 200 -900 Descending FlightAware
07:13AM 9.0500 -79.3910 33° Northeast 153 176 100 -600 Descending FlightAware